createdAt,value
2022-11-10T00:02:09.476Z,1.90
2022-11-10T00:04:37.214Z,1.60
2022-11-10T00:07:05.041Z,1.63
2022-11-10T00:09:34.154Z,1.90
2022-11-10T00:12:01.858Z,1.67
2022-11-10T00:14:47.050Z,2.37
2022-11-10T00:17:14.856Z,2.10
2022-11-10T00:19:42.616Z,1.90
2022-11-10T00:22:10.342Z,1.70
2022-11-10T00:24:39.497Z,2.10
2022-11-10T00:27:07.243Z,1.80
2022-11-10T00:29:35.707Z,2.17
2022-11-10T00:32:03.456Z,2.10
2022-11-10T00:34:31.182Z,2.00
2022-11-10T00:36:58.920Z,2.60
2022-11-10T00:39:26.718Z,2.03
2022-11-10T00:41:55.977Z,1.70
2022-11-10T00:44:23.677Z,2.17
2022-11-10T00:46:51.423Z,2.50
2022-11-10T00:49:19.141Z,2.00
2022-11-10T00:51:47.186Z,2.27
2022-11-10T00:54:14.894Z,2.10
2022-11-10T00:56:42.603Z,2.07
2022-11-10T00:59:11.794Z,2.27
2022-11-10T01:01:39.662Z,2.10
2022-11-10T01:04:07.706Z,3.40
2022-11-10T01:06:35.498Z,2.90
2022-11-10T01:09:03.600Z,2.40
2022-11-10T01:11:31.424Z,2.23
2022-11-10T01:13:59.303Z,2.30
2022-11-10T01:16:31.187Z,2.33
2022-11-10T01:19:01.248Z,2.37
2022-11-10T01:21:30.265Z,2.20
2022-11-10T01:23:58.039Z,2.20
2022-11-10T01:26:26.062Z,2.10
2022-11-10T01:28:53.843Z,2.20
2022-11-10T01:31:22.788Z,1.90
2022-11-10T01:33:51.845Z,2.03
2022-11-10T01:36:19.601Z,1.83
2022-11-10T01:38:47.294Z,2.10
2022-11-10T01:41:15.778Z,1.97
2022-11-10T01:43:43.636Z,2.00
2022-11-10T01:46:12.651Z,1.80
2022-11-10T01:48:43.905Z,2.03
2022-11-10T01:51:16.289Z,1.90
2022-11-10T01:53:47.640Z,1.93
2022-11-10T01:56:17.076Z,1.60
2022-11-10T01:58:48.923Z,1.60
2022-11-10T02:01:17.414Z,1.53
2022-11-10T02:03:49.482Z,1.80
2022-11-10T02:06:20.843Z,2.17
2022-11-10T02:08:49.357Z,1.70
2022-11-10T02:11:17.167Z,1.70
2022-11-10T02:13:45.031Z,1.57
2022-11-10T02:16:13.102Z,1.57
2022-11-10T02:18:40.841Z,1.70
2022-11-10T02:21:10.687Z,1.70
2022-11-10T02:23:50.387Z,2.00
2022-11-10T02:26:21.391Z,1.70
2022-11-10T02:28:49.086Z,1.83
2022-11-10T02:31:16.861Z,1.50
2022-11-10T02:33:44.671Z,2.00
2022-11-10T02:36:14.327Z,1.80
2022-11-10T02:38:42.453Z,2.20
2022-11-10T02:41:10.282Z,1.80
2022-11-10T02:43:39.295Z,1.90
2022-11-10T02:46:07.428Z,1.80
2022-11-10T02:48:35.173Z,1.90
2022-11-10T02:51:02.869Z,1.97
2022-11-10T02:53:31.981Z,1.93
2022-11-10T02:55:59.683Z,1.97
2022-11-10T02:58:27.387Z,2.10
2022-11-10T03:00:55.158Z,2.03
2022-11-10T03:03:23.193Z,1.83
2022-11-10T03:05:51.199Z,1.77
2022-11-10T03:08:18.951Z,1.80
2022-11-10T03:10:47.961Z,1.93
2022-11-10T03:13:15.679Z,1.80
2022-11-10T03:15:43.389Z,1.97
2022-11-10T03:18:11.110Z,2.23
2022-11-10T03:20:38.833Z,1.80
2022-11-10T03:23:07.199Z,1.80
2022-11-10T03:25:35.196Z,2.00
2022-11-10T03:28:04.275Z,1.70
2022-11-10T03:30:31.996Z,1.80
2022-11-10T03:32:59.741Z,1.60
2022-11-10T03:35:27.493Z,2.33
2022-11-10T03:37:55.201Z,2.00
2022-11-10T03:40:22.927Z,1.80
2022-11-10T03:42:50.673Z,1.90
2022-11-10T03:45:19.791Z,1.97
2022-11-10T03:47:48.590Z,1.80
2022-11-10T03:50:16.471Z,2.00
2022-11-10T03:52:46.542Z,1.80
2022-11-10T03:55:17.204Z,1.70
2022-11-10T03:57:45.338Z,1.83
2022-11-10T04:00:14.952Z,2.00
2022-11-10T04:02:43.998Z,2.20
2022-11-10T04:05:29.170Z,1.90
2022-11-10T04:08:18.690Z,2.00
2022-11-10T04:10:46.835Z,2.10
2022-11-10T04:13:32.427Z,1.90
2022-11-10T04:16:00.109Z,2.20
2022-11-10T04:18:29.834Z,2.40
2022-11-10T04:20:59.234Z,2.13
2022-11-10T04:23:28.916Z,1.60
2022-11-10T04:26:17.013Z,1.87
2022-11-10T04:28:45.443Z,2.03
2022-11-10T04:31:13.808Z,1.67
2022-11-10T04:33:43.514Z,2.23
2022-11-10T04:36:14.255Z,2.07
2022-11-10T04:38:42.338Z,2.30
2022-11-10T04:41:10.843Z,2.30
2022-11-10T04:43:38.898Z,2.30
2022-11-10T04:46:08.288Z,1.90
2022-11-10T04:48:36.740Z,1.90
2022-11-10T04:51:07.001Z,2.00
2022-11-10T04:53:35.066Z,2.40
2022-11-10T04:56:02.836Z,2.30
2022-11-10T04:58:30.546Z,2.17
2022-11-10T05:00:58.265Z,2.23
2022-11-10T05:03:26.610Z,2.40
2022-11-10T05:05:54.359Z,1.93
2022-11-10T05:08:23.405Z,2.40
2022-11-10T05:10:51.098Z,4.13
2022-11-10T05:13:18.978Z,3.00
2022-11-10T05:15:47.049Z,2.30
2022-11-10T05:18:14.777Z,2.17
2022-11-10T05:20:42.512Z,3.07
2022-11-10T05:23:27.925Z,2.27
2022-11-10T05:25:56.983Z,2.60
2022-11-10T05:28:25.025Z,2.10
2022-11-10T05:30:53.315Z,2.23
2022-11-10T05:33:21.349Z,2.60
2022-11-10T05:35:49.832Z,2.70
2022-11-10T05:38:17.721Z,2.30
2022-11-10T05:40:45.455Z,2.17
2022-11-10T05:43:15.309Z,2.40
2022-11-10T05:45:43.468Z,2.40
2022-11-10T05:48:11.243Z,6.93
2022-11-10T05:50:39.181Z,2.50
2022-11-10T05:53:06.897Z,2.10
2022-11-10T05:55:34.828Z,2.30
2022-11-10T05:58:02.573Z,2.40
2022-11-10T06:00:33.157Z,2.40
2022-11-10T06:03:02.981Z,2.33
2022-11-10T06:05:31.999Z,2.23
2022-11-10T06:08:00.491Z,2.77
2022-11-10T06:10:28.293Z,2.53
2022-11-10T06:12:56.639Z,2.33
2022-11-10T06:15:24.764Z,2.10
2022-11-10T06:17:54.522Z,3.90
2022-11-10T06:20:23.314Z,2.80
2022-11-10T06:23:02.273Z,2.80
2022-11-10T06:25:31.120Z,2.80
2022-11-10T06:27:59.467Z,2.70
2022-11-10T06:30:28.139Z,2.93
2022-11-10T06:32:57.380Z,2.63
2022-11-10T06:35:25.581Z,2.80
2022-11-10T06:38:01.151Z,2.33
2022-11-10T06:40:29.451Z,2.83
2022-11-10T06:42:57.488Z,3.10
2022-11-10T06:45:28.248Z,2.90
2022-11-10T06:48:05.158Z,2.80
2022-11-10T06:50:33.654Z,2.70
2022-11-10T06:53:02.015Z,3.10
2022-11-10T06:55:30.504Z,2.80
2022-11-10T06:57:59.033Z,2.80
2022-11-10T07:00:28.130Z,2.30
2022-11-10T07:03:05.507Z,3.00
2022-11-10T07:05:34.948Z,3.10
2022-11-10T07:08:03.869Z,2.53
2022-11-10T07:10:31.620Z,3.93
2022-11-10T07:12:59.404Z,3.20
2022-11-10T07:15:27.501Z,3.00
2022-11-10T07:17:55.444Z,2.93
2022-11-10T07:20:26.078Z,2.73
2022-11-10T07:22:59.160Z,3.00
2022-11-10T07:25:26.954Z,2.70
2022-11-10T07:27:55.512Z,3.20
2022-11-10T07:30:23.298Z,3.03
2022-11-10T07:32:59.307Z,2.57
2022-11-10T07:35:29.014Z,2.70
2022-11-10T07:37:56.796Z,2.67
2022-11-10T07:40:25.211Z,2.57
2022-11-10T07:42:53.212Z,2.80
2022-11-10T07:45:20.983Z,2.70
2022-11-10T07:47:48.738Z,2.63
2022-11-10T07:50:16.973Z,2.87
2022-11-10T07:52:46.061Z,2.70
2022-11-10T07:55:14.771Z,3.10
2022-11-10T07:57:42.477Z,2.70
2022-11-10T08:00:12.580Z,2.63
2022-11-10T08:02:40.369Z,3.20
2022-11-10T08:05:08.584Z,2.87
2022-11-10T08:07:36.460Z,2.63
2022-11-10T08:10:06.243Z,3.00
2022-11-10T08:12:34.015Z,2.87
2022-11-10T08:15:01.737Z,2.47
2022-11-10T08:17:29.452Z,2.57
2022-11-10T08:19:57.155Z,2.83
2022-11-10T08:22:24.908Z,2.77
2022-11-10T08:24:52.660Z,2.40
2022-11-10T08:27:21.706Z,2.73
2022-11-10T08:29:49.408Z,2.50
2022-11-10T08:32:17.238Z,2.40
2022-11-10T08:34:44.941Z,2.33
2022-11-10T08:37:12.639Z,1.97
2022-11-10T08:39:40.997Z,2.10
2022-11-10T08:42:08.719Z,2.77
2022-11-10T08:44:37.745Z,2.63
2022-11-10T08:47:05.574Z,2.93
2022-11-10T08:49:33.299Z,2.63
2022-11-10T08:52:01.011Z,2.30
2022-11-10T08:54:28.720Z,4.63
2022-11-10T08:56:56.488Z,2.33
2022-11-10T08:59:24.192Z,2.10
2022-11-10T09:01:53.216Z,4.03
2022-11-10T09:04:20.923Z,2.80
2022-11-10T09:06:48.735Z,1.83
2022-11-10T09:09:16.549Z,2.60
2022-11-10T09:11:44.279Z,2.30
2022-11-10T09:14:12.017Z,2.37
2022-11-10T09:16:39.883Z,2.67
2022-11-10T09:19:08.887Z,2.50
2022-11-10T09:21:36.839Z,2.57
2022-11-10T09:24:04.911Z,2.13
2022-11-10T09:26:33.818Z,2.20
2022-11-10T09:29:01.592Z,2.30
2022-11-10T09:31:29.391Z,2.40
2022-11-10T09:33:57.096Z,2.20
2022-11-10T09:36:26.167Z,2.90
2022-11-10T09:38:53.955Z,1.90
2022-11-10T09:41:21.705Z,2.28
2022-11-10T09:44:01.742Z,2.25
2022-11-10T09:46:36.020Z,2.05
2022-11-10T09:49:10.652Z,2.28
2022-11-10T09:51:48.194Z,2.50
2022-11-10T09:54:28.322Z,2.58
2022-11-10T09:57:00.313Z,2.45
2022-11-10T09:59:30.143Z,2.25
2022-11-10T10:02:02.987Z,2.10
2022-11-10T10:04:54.178Z,2.63
2022-11-10T10:07:27.541Z,2.10
2022-11-10T10:10:02.875Z,2.00
2022-11-10T10:12:44.495Z,2.25
2022-11-10T10:15:19.872Z,2.40
2022-11-10T10:18:00.876Z,2.50
2022-11-10T10:20:34.675Z,2.25
2022-11-10T10:23:14.523Z,2.05
2022-11-10T10:25:44.378Z,2.10
2022-11-10T10:28:20.812Z,2.65
2022-11-10T10:30:48.819Z,2.67
2022-11-10T10:33:18.759Z,2.30
2022-11-10T10:35:49.120Z,2.53
2022-11-10T10:38:24.034Z,2.60
2022-11-10T10:40:54.091Z,3.00
2022-11-10T10:43:21.834Z,2.80
2022-11-10T10:46:06.627Z,2.70
2022-11-10T10:48:34.444Z,2.50
2022-11-10T10:51:02.218Z,2.40
2022-11-10T10:53:31.246Z,2.70
2022-11-10T10:56:02.080Z,2.50
2022-11-10T10:58:32.076Z,2.47
2022-11-10T11:01:20.509Z,2.92
2022-11-10T11:03:50.352Z,2.72
2022-11-10T11:06:25.256Z,2.50
2022-11-10T11:08:59.632Z,2.33
2022-11-10T11:11:30.576Z,1.98
2022-11-10T11:14:21.505Z,2.40
2022-11-10T11:16:51.139Z,2.60
2022-11-10T11:19:21.239Z,2.25
2022-11-10T11:22:05.420Z,2.63
2022-11-10T11:24:42.796Z,1.92
2022-11-10T11:27:18.928Z,2.58
2022-11-10T11:29:57.439Z,2.30
2022-11-10T11:32:51.159Z,2.42
2022-11-10T11:35:25.440Z,2.28
2022-11-10T11:38:05.268Z,2.22
2022-11-10T11:40:44.251Z,2.20
2022-11-10T11:43:37.532Z,2.70
2022-11-10T11:46:10.712Z,2.45
2022-11-10T11:48:51.038Z,2.55
2022-11-10T11:51:24.450Z,2.00
2022-11-10T11:54:14.042Z,2.30
2022-11-10T11:56:46.434Z,2.00
2022-11-10T11:59:32.851Z,2.28
2022-11-10T12:02:20.655Z,2.33
2022-11-10T12:04:57.167Z,2.03
2022-11-10T12:07:38.298Z,2.00
2022-11-10T12:10:19.806Z,2.30
2022-11-10T12:13:05.165Z,2.10
2022-11-10T12:15:41.446Z,2.45
2022-11-10T12:18:20.559Z,2.08
2022-11-10T12:20:59.357Z,2.35
2022-11-10T12:23:35.608Z,1.92
2022-11-10T12:26:14.450Z,2.92
2022-11-10T12:28:48.311Z,2.05
2022-11-10T12:31:20.662Z,4.65
2022-11-10T12:33:53.247Z,1.92
2022-11-10T12:36:23.254Z,2.33
2022-11-10T12:39:00.899Z,1.98
2022-11-10T12:41:34.043Z,2.22
2022-11-10T12:44:09.240Z,1.85
2022-11-10T12:46:36.944Z,2.00
2022-11-10T12:49:16.695Z,2.10
2022-11-10T12:51:52.207Z,2.20
2022-11-10T12:54:21.634Z,2.20
2022-11-10T12:56:52.991Z,1.98
2022-11-10T12:59:29.683Z,2.45
2022-11-10T13:02:03.260Z,1.98
2022-11-10T13:04:32.430Z,2.47
2022-11-10T13:07:02.269Z,2.35
2022-11-10T13:09:32.725Z,1.73
2022-11-10T13:12:19.405Z,2.00
2022-11-10T13:14:49.053Z,2.00
2022-11-10T13:17:46.575Z,3.10
2022-11-10T13:20:48.106Z,1.92
2022-11-10T13:23:23.188Z,2.28
2022-11-10T13:25:56.600Z,2.20
2022-11-10T13:28:58.988Z,1.90
2022-11-10T13:31:41.118Z,2.40
2022-11-10T13:34:11.969Z,1.90
2022-11-10T13:36:41.023Z,2.25
2022-11-10T13:39:26.111Z,1.73
2022-11-10T13:41:59.732Z,2.38
2022-11-10T13:44:28.798Z,2.10
2022-11-10T13:47:15.188Z,2.72
2022-11-10T13:49:57.418Z,2.17
2022-11-10T13:52:35.776Z,1.95
2022-11-10T13:55:26.294Z,2.25
2022-11-10T13:58:01.065Z,2.22
2022-11-10T14:00:31.953Z,1.95
2022-11-10T14:03:02.240Z,2.20
2022-11-10T14:06:05.505Z,2.15
2022-11-10T14:08:41.011Z,2.25
2022-11-10T14:11:16.888Z,2.55
2022-11-10T14:13:48.660Z,2.08
2022-11-10T14:16:23.366Z,1.95
2022-11-10T14:18:58.962Z,2.08
2022-11-10T14:21:31.886Z,2.40
2022-11-10T14:24:05.128Z,2.05
2022-11-10T14:26:36.594Z,2.53
2022-11-10T14:29:28.987Z,2.47
2022-11-10T14:31:58.201Z,2.47
2022-11-10T14:34:28.535Z,2.30
2022-11-10T14:36:58.538Z,2.63
2022-11-10T14:39:30.619Z,2.60
2022-11-10T14:42:01.289Z,2.35
2022-11-10T14:44:30.755Z,2.35
2022-11-10T14:47:13.251Z,1.88
2022-11-10T14:49:43.853Z,2.28
2022-11-10T14:52:14.032Z,2.10
2022-11-10T14:54:46.920Z,2.38
2022-11-10T14:57:19.632Z,2.30
2022-11-10T14:59:47.529Z,2.35
2022-11-10T15:02:17.941Z,2.60
2022-11-10T15:04:50.614Z,2.90
2022-11-10T15:07:18.975Z,2.60
2022-11-10T15:10:04.909Z,3.03
2022-11-10T15:12:34.189Z,3.20
2022-11-10T15:15:20.662Z,2.90
2022-11-10T15:17:51.398Z,2.97
2022-11-10T15:20:36.826Z,2.73
2022-11-10T15:23:07.538Z,2.70
2022-11-10T15:25:38.640Z,2.15
2022-11-10T15:28:16.540Z,2.80
2022-11-10T15:30:52.319Z,2.50
2022-11-10T15:33:27.430Z,2.60
2022-11-10T15:36:13.795Z,2.28
2022-11-10T15:38:41.660Z,3.43
2022-11-10T15:41:26.758Z,2.73
2022-11-10T15:43:55.351Z,2.27
2022-11-10T15:46:26.693Z,2.57
2022-11-10T15:48:54.466Z,2.50
2022-11-10T15:51:26.342Z,2.40
2022-11-10T15:53:55.273Z,2.80
2022-11-10T15:56:25.311Z,2.53
2022-11-10T15:59:00.610Z,3.03
2022-11-10T16:01:29.991Z,3.27
2022-11-10T16:03:58.081Z,2.50
2022-11-10T16:06:27.505Z,3.30
2022-11-10T16:08:55.342Z,3.63
2022-11-10T16:11:24.468Z,2.90
2022-11-10T16:13:53.895Z,3.17
2022-11-10T16:16:23.918Z,3.20
2022-11-10T16:18:52.060Z,2.97
2022-11-10T16:21:21.396Z,4.10
2022-11-10T16:23:50.607Z,3.53
2022-11-10T16:26:22.104Z,3.20
2022-11-10T16:28:50.680Z,3.63
2022-11-10T16:31:20.003Z,4.00
2022-11-10T16:33:47.935Z,3.70
2022-11-10T16:36:24.401Z,3.40
2022-11-10T16:38:54.090Z,3.40
2022-11-10T16:41:23.103Z,3.63
2022-11-10T16:43:51.032Z,4.10
2022-11-10T16:46:20.572Z,3.40
2022-11-10T16:48:49.487Z,3.10
2022-11-10T16:51:18.019Z,3.87
2022-11-10T16:53:46.851Z,3.77
2022-11-10T16:56:17.145Z,4.23
2022-11-10T16:58:44.816Z,4.07
2022-11-10T17:01:20.037Z,3.90
2022-11-10T17:03:50.449Z,3.80
2022-11-10T17:06:19.285Z,4.30
2022-11-10T17:08:48.486Z,4.47
2022-11-10T17:11:17.544Z,5.00
2022-11-10T17:13:45.597Z,4.47
2022-11-10T17:16:28.091Z,3.87
2022-11-10T17:18:57.336Z,3.90
2022-11-10T17:21:29.924Z,4.20
2022-11-10T17:24:01.121Z,4.33
2022-11-10T17:26:30.910Z,4.00
2022-11-10T17:28:58.641Z,4.00
2022-11-10T17:31:26.326Z,4.73
2022-11-10T17:33:54.705Z,4.17
2022-11-10T17:36:24.081Z,4.23
2022-11-10T17:38:52.924Z,4.30
2022-11-10T17:41:21.240Z,4.67
2022-11-10T17:43:50.304Z,4.20
2022-11-10T17:46:18.200Z,4.00
2022-11-10T17:48:47.601Z,4.40
2022-11-10T17:51:20.031Z,4.50
2022-11-10T17:53:47.833Z,4.90
2022-11-10T17:56:15.527Z,4.47
2022-11-10T17:58:43.253Z,4.33
2022-11-10T18:01:22.062Z,4.77
2022-11-10T18:03:50.495Z,5.00
2022-11-10T18:06:19.672Z,5.83
2022-11-10T18:08:47.719Z,4.80
2022-11-10T18:11:16.875Z,4.40
2022-11-10T18:13:45.302Z,4.40
2022-11-10T18:16:14.834Z,4.20
2022-11-10T18:18:43.929Z,4.50
2022-11-10T18:21:12.939Z,4.37
2022-11-10T18:23:43.464Z,4.20
2022-11-10T18:26:12.424Z,4.53
2022-11-10T18:28:42.050Z,4.70
2022-11-10T18:31:11.217Z,3.90
2022-11-10T18:33:39.028Z,3.87
2022-11-10T18:36:08.923Z,4.70
2022-11-10T18:38:36.810Z,3.90
2022-11-10T18:41:21.971Z,4.10
2022-11-10T18:43:49.692Z,3.60
2022-11-10T18:46:17.486Z,3.83
2022-11-10T18:48:46.210Z,3.77
2022-11-10T18:51:15.595Z,4.40
2022-11-10T18:53:43.345Z,3.70
2022-11-10T18:56:11.259Z,3.70
2022-11-10T18:58:39.154Z,3.67
2022-11-10T19:01:08.013Z,3.10
2022-11-10T19:03:36.950Z,3.73
2022-11-10T19:06:05.246Z,4.00
2022-11-10T19:08:34.397Z,3.60
2022-11-10T19:11:02.174Z,3.67
2022-11-10T19:13:29.924Z,3.30
2022-11-10T19:16:00.186Z,3.73
2022-11-10T19:18:29.940Z,4.23
2022-11-10T19:20:57.655Z,4.30
2022-11-10T19:23:25.850Z,4.13
2022-11-10T19:26:01.927Z,4.03
2022-11-10T19:28:30.138Z,3.97
2022-11-10T19:31:01.453Z,3.60
2022-11-10T19:33:30.680Z,3.50
2022-11-10T19:36:03.676Z,3.60
2022-11-10T19:38:32.176Z,3.83
2022-11-10T19:41:05.119Z,3.97
2022-11-10T19:43:32.901Z,4.00
2022-11-10T19:46:02.832Z,6.73
2022-11-10T19:48:31.078Z,3.93
2022-11-10T19:50:59.830Z,4.00
2022-11-10T19:53:28.000Z,3.93
2022-11-10T19:56:03.161Z,3.80
2022-11-10T19:58:31.391Z,3.13
2022-11-10T20:01:00.100Z,3.37
2022-11-10T20:03:29.868Z,3.60
2022-11-10T20:06:02.455Z,3.40
2022-11-10T20:08:30.402Z,4.43
2022-11-10T20:11:02.524Z,4.97
2022-11-10T20:13:31.069Z,3.57
2022-11-10T20:15:58.890Z,3.90
2022-11-10T20:18:26.639Z,3.80
2022-11-10T20:20:54.447Z,3.17
2022-11-10T20:23:22.605Z,3.30
2022-11-10T20:25:50.558Z,3.47
2022-11-10T20:28:19.667Z,3.70
2022-11-10T20:30:47.407Z,3.80
2022-11-10T20:33:15.129Z,4.07
2022-11-10T20:35:44.371Z,3.57
2022-11-10T20:38:12.226Z,3.50
2022-11-10T20:40:44.699Z,3.43
2022-11-10T20:43:14.720Z,3.50
2022-11-10T20:45:43.989Z,3.50
2022-11-10T20:48:11.754Z,3.63
2022-11-10T20:50:41.057Z,3.60
2022-11-10T20:53:08.906Z,3.87
2022-11-10T20:55:53.063Z,3.50
2022-11-10T20:58:21.473Z,4.00
2022-11-10T21:00:50.562Z,3.80
2022-11-10T21:03:18.321Z,3.20
2022-11-10T21:05:46.062Z,3.43
2022-11-10T21:08:13.946Z,3.03
2022-11-10T21:10:41.664Z,3.50
2022-11-10T21:13:09.388Z,4.03
2022-11-10T21:15:39.267Z,3.70
2022-11-10T21:18:08.308Z,3.97
2022-11-10T21:20:36.048Z,3.33
2022-11-10T21:23:03.901Z,4.60
2022-11-10T21:25:31.610Z,3.93
2022-11-10T21:27:59.379Z,3.50
2022-11-10T21:30:27.090Z,3.80
2022-11-10T21:32:54.847Z,4.00
2022-11-10T21:35:24.100Z,3.70
2022-11-10T21:37:51.852Z,3.53
2022-11-10T21:40:19.711Z,3.20
2022-11-10T21:42:47.434Z,3.30
2022-11-10T21:45:15.176Z,3.90
2022-11-10T21:47:42.887Z,4.10
2022-11-10T21:50:10.700Z,3.60
2022-11-10T21:52:39.742Z,4.23
2022-11-10T21:55:08.897Z,3.53
2022-11-10T21:57:36.773Z,3.40
2022-11-10T22:00:06.516Z,3.90
2022-11-10T22:02:34.241Z,3.67
2022-11-10T22:05:01.904Z,3.83
2022-11-10T22:07:29.640Z,3.70
2022-11-10T22:10:16.463Z,3.50
2022-11-10T22:13:01.908Z,4.47
2022-11-10T22:15:47.291Z,3.70
2022-11-10T22:18:34.868Z,4.07
2022-11-10T22:21:02.927Z,3.47
2022-11-10T22:23:48.541Z,3.53
2022-11-10T22:26:17.695Z,3.57
2022-11-10T22:28:46.405Z,3.30
2022-11-10T22:31:14.621Z,3.83
2022-11-10T22:33:43.949Z,4.27
2022-11-10T22:36:13.829Z,3.87
2022-11-10T22:38:42.669Z,4.07
2022-11-10T22:41:31.893Z,3.63
2022-11-10T22:44:08.420Z,4.00
2022-11-10T22:46:38.327Z,3.63
2022-11-10T22:49:08.269Z,3.50
2022-11-10T22:51:36.723Z,3.73
2022-11-10T22:54:05.590Z,3.93
2022-11-10T22:56:34.277Z,4.00
2022-11-10T22:59:03.321Z,4.77
2022-11-10T23:01:31.146Z,4.67
2022-11-10T23:03:59.399Z,3.67
2022-11-10T23:06:27.684Z,3.90
2022-11-10T23:08:55.399Z,3.83
2022-11-10T23:11:24.706Z,3.83
2022-11-10T23:13:52.732Z,4.20
2022-11-10T23:16:23.504Z,4.40
2022-11-10T23:18:52.375Z,3.87
2022-11-10T23:21:22.360Z,4.20
2022-11-10T23:23:51.153Z,3.90
2022-11-10T23:26:21.165Z,3.57
2022-11-10T23:28:49.692Z,4.07
2022-11-10T23:31:19.480Z,3.87
2022-11-10T23:33:51.363Z,3.60
2022-11-10T23:36:20.193Z,4.37
2022-11-10T23:38:48.714Z,3.43
2022-11-10T23:41:18.170Z,3.87
2022-11-10T23:43:45.893Z,3.93
2022-11-10T23:46:13.790Z,4.13
2022-11-10T23:48:42.202Z,3.63
2022-11-10T23:51:13.622Z,3.97
2022-11-10T23:53:41.675Z,4.40
2022-11-10T23:56:12.399Z,3.90
2022-11-10T23:58:40.464Z,4.03
